Terminal Aerodrome Forecast
Issued by NWS

Home | Current Version | Previous Version | Text Only | Print | Product List | Glossary On
Versions: 1 2 3 4 5 6 7 8 9 10 11 12 13 14 15 16 17 18 19 20 21 22 23
000
FTUS43 KLSX 281737
TAFUIN
TAF
KUIN 281737Z 2818/2918 22005KT P6SM SCT035
     FM282000 18007KT P6SM VCTS SCT035CB
     FM290300 17004KT P6SM BKN250
     FM290700 18006KT P6SM VCTS BKN080CB
     FM291100 32010KT P6SM SCT100=

USA.gov is the U.S. government's official web portal to all federal, state and local government web resources and services.